Forecast Period: 

6 pm 29th November to 6 am 30th November 2021 

Synopsis:

The Atlantic High Pressure System is the dominant  feature

Forecast:

Fair to occasionally cloudy and breezy with brief isolated showers

Weather Advisory/Warning:

None

Winds:

ENE – E at 15 to 35 km/h (9 - 22 mph)

Sea Conditions:

Moderate in open water; with swells (1.5 – 2.5 m)

Marine Advisory:

Small craft operators and sea bathers should exercise caution for above normal sea swells and occasional gusty winds

Upcoming Tides:
 High:  01:54 am 01:03 pm  
 Low:

07:02 pm (29th)

09:23 am 07:24 pm

Aviation WX

[Source: ADDS]
METAR
TVSA 301700Z 07006KT 9999 -SHRA BKN018 29/25 Q1012 TEMPO 5000 SHRA =
TVSA 301700Z 3018/0118 08012KT 9999 SCT018 TEMPO 3018/3024 SHRA BKN012 FEW013CB
TAF
TVSA 301700Z 3018/0118 08012KT 9999 SCT018 TEMPO 3018/3024 SHRA BKN012 FEW013CB =
SR / SS: 10:10 / 21:35 UTC (Sunrise Sunset 2021-11-30)